Time;durP1;ratioP1;P1;durP2;ratioP2;P2;SDS_P1;SDS_P2;PMS_P1;PMS_P2;Temp;Humidity;BMP_temperature;BMP_pressure;BME280_temperature;BME280_humidity;BME280_pressure;Samples;Min_cycle;Max_cycle;Signal;HPM_P1;HPM_P2
2023/01/04 00:01:42;;;;;;;7.30;1.60;;;8.40;99.90;;;;;;5013497;28;20041;-81
2023/01/04 00:04:08;;;;;;;7.85;2.30;;;7.50;99.90;;;;;;4995979;28;20057;-81
2023/01/04 00:06:34;;;;;;;9.45;1.55;;;8.20;99.90;;;;;;5012948;28;20653;-81
2023/01/04 00:09:00;;;;;;;5.25;2.20;;;8.50;99.90;;;;;;4996008;28;20037;-81
2023/01/04 00:11:26;;;;;;;9.00;1.50;;;8.50;99.90;;;;;;5013162;28;20059;-81
2023/01/04 00:13:55;;;;;;;9.75;1.65;;;8.50;99.90;;;;;;5029261;28;20073;-82
2023/01/04 00:16:23;;;;;;;16.23;2.10;;;9.50;99.90;;;;;;5028693;28;20128;-80
2023/01/04 00:18:50;;;;;;;6.45;1.63;;;8.60;99.90;;;;;;5047217;28;20538;-81
2023/01/04 00:21:24;;;;;;;4.35;1.45;;;9.40;99.90;;;;;;5046603;28;20040;-81
2023/01/04 00:23:53;;;;;;;7.93;1.60;;;8.50;99.90;;;;;;5029475;28;20136;-81
2023/01/04 00:26:24;;;;;;;7.07;1.20;;;8.50;99.90;;;;;;5046630;28;20577;-81
2023/01/04 00:29:11;;;;;;;5.50;1.70;;;8.50;99.90;;;;;;5028696;28;20044;-81
2023/01/04 00:31:36;;;;;;;8.88;1.65;;;8.50;99.90;;;;;;5029027;28;20560;-81
2023/01/04 00:34:04;;;;;;;10.32;1.75;;;8.50;99.90;;;;;;5011767;28;20128;-81
2023/01/04 00:36:30;;;;;;;6.05;1.48;;;8.50;99.90;;;;;;5027892;28;20091;-81
2023/01/04 00:39:06;;;;;;;8.02;1.67;;;8.50;99.90;;;;;;5011672;28;20556;-81
2023/01/04 00:41:38;;;;;;;9.05;2.50;;;8.70;99.90;;;;;;5028790;28;20048;-82
2023/01/04 00:44:05;;;;;;;9.10;2.20;;;8.40;99.90;;;;;;5028718;28;20339;-82
2023/01/04 00:46:32;;;;;;;6.72;1.42;;;8.40;99.90;;;;;;5012081;28;20142;-81
2023/01/04 00:48:58;;;;;;;7.15;1.90;;;8.30;99.90;;;;;;5028716;28;20052;-81
2023/01/04 00:51:24;;;;;;;11.38;1.60;;;8.40;99.90;;;;;;5011210;28;20055;-82
2023/01/04 00:53:50;;;;;;;7.63;1.98;;;8.30;99.90;;;;;;5028412;28;20057;-82
2023/01/04 00:56:16;;;;;;;12.70;1.90;;;8.30;99.90;;;;;;5011319;28;20057;-81
2023/01/04 00:58:41;;;;;;;10.45;1.80;;;8.30;99.90;;;;;;5028434;28;20051;-82
2023/01/04 01:01:08;;;;;;;6.28;1.80;;;8.20;99.90;;;;;;5027910;28;20052;-81
2023/01/04 01:03:34;;;;;;;6.07;1.83;;;8.20;99.90;;;;;;5027660;28;20091;-81
2023/01/04 01:06:01;;;;;;;11.50;2.10;;;8.20;99.90;;;;;;5028810;28;20057;-81
2023/01/04 01:08:27;;;;;;;6.65;2.65;;;8.20;99.90;;;;;;5011148;28;20057;-80
2023/01/04 01:10:54;;;;;;;11.52;1.70;;;8.20;99.90;;;;;;5047022;28;20058;-81
2023/01/04 01:13:21;;;;;;;3.95;1.45;;;8.20;99.90;;;;;;5028557;28;20048;-80
2023/01/04 01:15:47;;;;;;;8.23;1.60;;;8.20;99.90;;;;;;5045752;28;20037;-80
2023/01/04 01:18:14;;;;;;;5.20;1.48;;;8.20;99.90;;;;;;5011022;28;20051;-80
2023/01/04 01:20:43;;;;;;;8.05;2.10;;;8.20;99.90;;;;;;5011331;28;20052;-80
2023/01/04 01:23:12;;;;;;;9.40;1.60;;;8.30;99.90;;;;;;5046378;28;20373;-81
2023/01/04 01:25:37;;;;;;;10.38;2.17;;;9.00;99.90;;;;;;5027777;28;20064;-81
2023/01/04 01:28:03;;;;;;;6.00;1.80;;;8.30;99.90;;;;;;5027882;28;20486;-82
2023/01/04 01:30:29;;;;;;;7.63;1.63;;;8.30;99.90;;;;;;5010739;28;20044;-82
2023/01/04 01:32:55;;;;;;;5.35;1.80;;;8.30;99.90;;;;;;5027503;28;20052;-81
2023/01/04 01:35:20;;;;;;;4.93;1.65;;;8.30;99.90;;;;;;5027351;28;20049;-82
2023/01/04 01:37:46;;;;;;;10.48;2.97;;;8.30;99.90;;;;;;4994475;28;20094;-81
2023/01/04 01:40:12;;;;;;;5.20;1.38;;;8.30;99.90;;;;;;5011421;28;20124;-82
2023/01/04 01:42:37;;;;;;;8.90;2.17;;;8.30;99.90;;;;;;5026845;28;20052;-81
2023/01/04 01:45:10;;;;;;;8.27;2.20;;;8.30;99.90;;;;;;5011163;28;20041;-82
2023/01/04 01:47:46;;;;;;;4.00;1.40;;;8.30;99.90;;;;;;5026826;28;20045;-82
2023/01/04 01:50:25;;;;;;;7.13;2.08;;;8.30;99.90;;;;;;5027098;28;20041;-82
2023/01/04 01:52:53;;;;;;;4.47;1.35;;;8.30;99.90;;;;;;5027773;28;20407;-82
2023/01/04 01:55:19;;;;;;;6.05;1.48;;;8.30;99.90;;;;;;5027090;28;20435;-82
2023/01/04 01:57:48;;;;;;;5.22;1.38;;;8.80;99.90;;;;;;5011105;28;20049;-81
2023/01/04 02:00:15;;;;;;;2.83;1.40;;;8.30;99.90;;;;;;5026723;28;20083;-83
2023/01/04 02:03:06;;;;;;;2.55;1.23;;;8.20;99.90;;;;;;5027437;28;20472;-82
2023/01/04 02:05:33;;;;;;;5.30;1.20;;;8.30;99.90;;;;;;5027079;28;20060;-82
2023/01/04 02:08:01;;;;;;;3.92;1.65;;;9.00;99.90;;;;;;5026705;28;20480;-83
2023/01/04 02:10:27;;;;;;;6.05;1.08;;;8.20;99.90;;;;;;5011202;28;20119;-83
2023/01/04 02:12:52;;;;;;;4.60;1.42;;;8.20;99.90;;;;;;5026528;28;20133;-83
2023/01/04 02:15:21;;;;;;;5.05;1.27;;;8.40;99.90;;;;;;5010427;28;20033;-82
2023/01/04 02:17:52;;;;;;;3.13;1.10;;;8.20;99.90;;;;;;5010997;28;20045;-82
2023/01/04 02:20:30;;;;;;;4.68;1.40;;;8.40;99.90;;;;;;5027449;28;20317;-82
2023/01/04 02:23:07;;;;;;;5.03;1.20;;;8.20;99.90;;;;;;5027670;28;20504;-83
2023/01/04 02:26:23;;;;;;;2.20;0.93;;;8.30;99.90;;;;;;5026786;28;20052;-83
2023/01/04 02:28:49;;;;;;;4.07;1.30;;;8.30;99.90;;;;;;5011847;28;20057;-84
2023/01/04 02:31:23;;;;;;;1.95;1.17;;;8.50;99.90;;;;;;5012477;28;20041;-84
2023/01/04 02:34:21;;;;;;;3.97;0.82;;;8.30;99.90;;;;;;5027159;28;20106;-82
2023/01/04 02:37:08;;;;;;;1.65;0.80;;;8.30;99.90;;;;;;5010346;28;20052;-83
2023/01/04 02:39:52;;;;;;;5.82;1.02;;;8.40;99.90;;;;;;5026953;28;20049;-82
2023/01/04 02:45:33;;;;;;;3.90;0.70;;;8.40;99.90;;;;;;5044618;28;20053;-82
2023/01/04 02:50:57;;;;;;;2.60;0.75;;;8.40;99.90;;;;;;5026204;28;20049;-81
2023/01/04 02:53:32;;;;;;;5.18;0.80;;;8.50;99.90;;;;;;5010475;28;20103;-82
2023/01/04 02:56:13;;;;;;;2.28;0.68;;;8.50;99.90;;;;;;5026287;28;20084;-81
2023/01/04 02:59:07;;;;;;;2.30;0.55;;;8.50;99.90;;;;;;5026991;28;20045;-81
2023/01/04 03:07:46;;;;;;;3.38;0.65;;;8.60;99.90;;;;;;5030260;28;20545;-82
2023/01/04 03:10:39;;;;;;;2.58;0.43;;;8.50;99.90;;;;;;5031091;28;20049;-82
2023/01/04 03:13:20;;;;;;;1.55;0.50;;;8.60;99.90;;;;;;5013245;28;20049;-82
2023/01/04 03:15:53;;;;;;;1.65;0.55;;;8.60;99.90;;;;;;5013364;28;20048;-82
2023/01/04 03:18:33;;;;;;;6.88;0.73;;;8.60;99.90;;;;;;5030362;28;20037;-82
2023/01/04 03:21:02;;;;;;;0.57;0.35;;;8.70;99.90;;;;;;5029614;28;20619;-82
2023/01/04 03:35:22;;;;;;;1.63;0.25;;;8.80;99.90;;;;;;5029537;28;20484;-82
2023/01/04 03:49:56;;;;;;;0.35;0.20;;;9.90;99.90;;;;;;5030542;28;20060;-81
2023/01/04 03:52:27;;;;;;;0.57;0.30;;;9.10;99.90;;;;;;5013206;28;20141;-81
2023/01/04 03:54:55;;;;;;;0.93;0.32;;;10.10;99.90;;;;;;5028891;28;20045;-82
2023/01/04 03:57:22;;;;;;;4.13;0.20;;;9.20;99.90;;;;;;5013408;28;20052;-81
2023/01/04 03:59:56;;;;;;;0.30;0.30;;;9.90;99.90;;;;;;5012332;28;20080;-83
2023/01/04 04:02:27;;;;;;;1.27;0.28;;;9.20;99.90;;;;;;5012901;28;20045;-82
2023/01/04 04:10:21;;;;;;;0.25;0.20;;;9.40;99.90;;;;;;5029451;28;20056;-82
2023/01/04 04:12:47;;;;;;;0.85;0.30;;;9.40;99.90;;;;;;5028767;28;20049;-81
2023/01/04 04:15:13;;;;;;;1.75;0.40;;;9.40;99.90;;;;;;5029391;28;20044;-81
2023/01/04 04:17:39;;;;;;;0.63;0.40;;;9.40;99.90;;;;;;5028593;28;20083;-82
2023/01/04 04:20:05;;;;;;;0.52;0.40;;;9.60;99.90;;;;;;5012458;28;20073;-80
2023/01/04 04:22:31;;;;;;;0.65;0.40;;;9.60;99.90;;;;;;5029344;28;20165;-81
2023/01/04 04:24:57;;;;;;;0.43;0.40;;;9.60;99.90;;;;;;5012127;28;20481;-81
2023/01/04 04:27:22;;;;;;;2.30;0.30;;;9.60;99.90;;;;;;5029485;28;20659;-80
2023/01/04 04:29:48;;;;;;;0.30;0.30;;;9.90;99.90;;;;;;5012282;28;20049;-81
2023/01/04 04:32:14;;;;;;;0.90;0.80;;;9.90;99.90;;;;;;4996223;28;20494;-81
2023/01/04 04:34:39;;;;;;;1.90;0.60;;;9.80;99.90;;;;;;4995650;28;20045;-81
2023/01/04 04:37:05;;;;;;;0.70;0.60;;;9.90;99.90;;;;;;4996063;28;20118;-81
2023/01/04 04:39:31;;;;;;;1.33;0.80;;;9.90;99.90;;;;;;5012503;28;20140;-80
2023/01/04 04:41:57;;;;;;;1.20;0.70;;;10.00;99.90;;;;;;5028106;28;20045;-80
2023/01/04 04:44:23;;;;;;;0.82;0.65;;;10.10;99.90;;;;;;5029212;28;20049;-80
2023/01/04 04:46:48;;;;;;;1.00;0.90;;;10.10;99.90;;;;;;5011410;28;20065;-79
2023/01/04 04:49:15;;;;;;;1.75;0.80;;;10.20;99.90;;;;;;5012499;28;20081;-80
2023/01/04 04:51:42;;;;;;;2.90;0.85;;;10.30;99.90;;;;;;5011547;28;20127;-80
2023/01/04 04:54:10;;;;;;;1.33;0.75;;;10.20;99.90;;;;;;5028553;28;20041;-80
2023/01/04 04:56:36;;;;;;;1.00;0.80;;;10.30;99.90;;;;;;5011283;28;20056;-80
2023/01/04 04:59:03;;;;;;;1.02;0.77;;;10.30;99.90;;;;;;5027827;28;20060;-80
2023/01/04 05:01:29;;;;;;;1.23;0.70;;;10.40;99.90;;;;;;5012490;28;20382;-79
2023/01/04 05:03:55;;;;;;;1.77;0.80;;;10.40;99.90;;;;;;5027310;28;20090;-80
2023/01/04 05:06:21;;;;;;;1.25;1.00;;;10.50;99.90;;;;;;5028905;28;20041;-80
2023/01/04 05:08:47;;;;;;;1.65;0.95;;;10.60;99.90;;;;;;5027773;28;20509;-81
2023/01/04 05:11:13;;;;;;;2.00;1.10;;;10.50;99.90;;;;;;4978961;28;20144;-80
2023/01/04 05:13:39;;;;;;;3.47;1.60;;;10.50;99.90;;;;;;4995254;28;20045;-81
2023/01/04 05:16:07;;;;;;;1.70;1.20;;;10.60;99.90;;;;;;5010943;28;20045;-80
2023/01/04 05:18:33;;;;;;;1.20;0.80;;;10.60;99.90;;;;;;5028024;28;20044;-81
2023/01/04 05:20:59;;;;;;;1.38;1.13;;;10.60;99.90;;;;;;5027644;28;20045;-81
2023/01/04 05:23:25;;;;;;;1.75;0.80;;;11.00;99.90;;;;;;5027994;28;20037;-81
2023/01/04 05:25:59;;;;;;;3.10;0.90;;;10.70;99.90;;;;;;5027226;28;20584;-80
2023/01/04 05:28:25;;;;;;;3.53;0.88;;;10.70;99.90;;;;;;5027503;28;20321;-81
2023/01/04 05:30:54;;;;;;;1.00;0.88;;;10.70;99.90;;;;;;5010931;28;20043;-81
2023/01/04 05:33:24;;;;;;;1.55;1.15;;;10.70;99.90;;;;;;5010755;28;20509;-81
2023/01/04 05:35:50;;;;;;;1.17;1.08;;;10.80;99.90;;;;;;5011618;28;20049;-82
2023/01/04 05:38:17;;;;;;;1.98;1.00;;;10.80;99.90;;;;;;5011079;28;20060;-82
2023/01/04 05:40:42;;;;;;;2.05;0.98;;;10.80;99.90;;;;;;5027547;28;20254;-81
2023/01/04 05:43:08;;;;;;;1.83;1.10;;;10.80;99.90;;;;;;4994550;28;20090;-82
2023/01/04 05:45:34;;;;;;;1.25;0.90;;;10.80;99.90;;;;;;5011465;28;20049;-82
2023/01/04 05:48:00;;;;;;;1.08;0.88;;;10.80;99.90;;;;;;5011116;28;20041;-81
2023/01/04 05:50:26;;;;;;;1.40;0.90;;;10.90;99.90;;;;;;5026725;28;20519;-82
2023/01/04 05:52:52;;;;;;;3.60;0.93;;;10.80;99.90;;;;;;5011253;28;20041;-83
2023/01/04 05:55:18;;;;;;;1.77;0.98;;;10.80;99.90;;;;;;5026971;28;20102;-84
2023/01/04 05:57:44;;;;;;;5.13;0.80;;;10.80;99.90;;;;;;5010978;28;20463;-83
2023/01/04 06:00:11;;;;;;;1.40;0.73;;;10.80;99.90;;;;;;5026811;28;20037;-84
2023/01/04 06:02:37;;;;;;;1.42;0.70;;;10.80;99.90;;;;;;5027248;28;20497;-83
2023/01/04 06:05:03;;;;;;;1.50;0.50;;;10.80;99.90;;;;;;5023367;28;20057;-82
2023/01/04 06:07:29;;;;;;;1.52;0.50;;;10.80;99.90;;;;;;5007483;28;20410;-82
2023/01/04 06:09:55;;;;;;;1.60;0.60;;;10.70;99.90;;;;;;5007689;28;20081;-83
2023/01/04 06:12:21;;;;;;;2.28;0.60;;;10.70;99.90;;;;;;5006910;28;20045;-82
2023/01/04 06:14:47;;;;;;;2.20;0.50;;;10.80;99.90;;;;;;5024619;28;20095;-83
2023/01/04 06:17:19;;;;;;;0.75;0.40;;;10.80;99.90;;;;;;5007674;28;20132;-82
2023/01/04 06:19:45;;;;;;;1.13;0.57;;;10.80;99.90;;;;;;5023781;28;20111;-83
2023/01/04 06:22:10;;;;;;;1.05;0.50;;;11.30;99.90;;;;;;5023878;28;20042;-81
2023/01/04 06:24:36;;;;;;;1.05;0.50;;;11.10;99.90;;;;;;5013526;28;20084;-82
2023/01/04 06:27:02;;;;;;;1.25;0.50;;;10.90;99.90;;;;;;5014157;28;20507;-83
2023/01/04 06:29:28;;;;;;;1.80;0.60;;;10.90;99.90;;;;;;5010644;28;20052;-81
2023/01/04 06:31:54;;;;;;;2.83;0.65;;;10.90;99.90;;;;;;5028206;28;20406;-81
2023/01/04 06:34:19;;;;;;;1.60;0.70;;;10.90;99.90;;;;;;4994704;28;20114;-82
2023/01/04 06:36:45;;;;;;;2.38;0.75;;;11.00;99.90;;;;;;5012420;28;20473;-81
2023/01/04 06:39:11;;;;;;;1.15;0.57;;;10.90;99.90;;;;;;5011223;28;20501;-81
2023/01/04 06:41:37;;;;;;;4.50;0.90;;;10.90;99.90;;;;;;5027452;28;20042;-81
2023/01/04 06:44:02;;;;;;;3.50;0.70;;;10.90;99.90;;;;;;5027577;28;20068;-81
2023/01/04 06:46:28;;;;;;;4.65;0.60;;;10.90;99.90;;;;;;5011029;28;20053;-81
2023/01/04 06:48:54;;;;;;;2.67;0.70;;;10.90;99.90;;;;;;5011469;28;20038;-81
2023/01/04 06:51:20;;;;;;;1.17;0.55;;;10.90;99.90;;;;;;5027466;28;20056;-81
2023/01/04 06:53:46;;;;;;;0.95;0.68;;;10.90;99.90;;;;;;5027835;28;20041;-81
2023/01/04 06:56:12;;;;;;;2.35;1.08;;;10.90;99.90;;;;;;5010307;28;20659;-81
2023/01/04 06:58:38;;;;;;;0.98;0.25;;;10.90;99.90;;;;;;5010773;28;20052;-81
2023/01/04 07:01:05;;;;;;;1.05;0.40;;;11.30;99.90;;;;;;5027060;28;20049;-80
2023/01/04 07:03:31;;;;;;;2.55;0.40;;;10.90;99.90;;;;;;5009460;28;20060;-80
2023/01/04 07:05:57;;;;;;;1.08;0.40;;;11.00;99.90;;;;;;5026328;28;20049;-82
2023/01/04 07:08:23;;;;;;;1.70;0.43;;;11.00;99.90;;;;;;5009235;28;20076;-80
2023/01/04 07:10:48;;;;;;;2.88;0.50;;;11.00;99.90;;;;;;5026270;28;20486;-79
2023/01/04 07:13:14;;;;;;;2.58;0.55;;;11.00;99.90;;;;;;5025650;28;20493;-80
2023/01/04 07:15:40;;;;;;;0.52;0.20;;;11.00;99.90;;;;;;5025785;28;20050;-77
2023/01/04 07:18:08;;;;;;;3.40;0.55;;;11.00;99.90;;;;;;4992459;28;20616;-79
2023/01/04 07:20:35;;;;;;;1.27;0.40;;;11.00;99.90;;;;;;5024693;28;20041;-80
2023/01/04 07:23:00;;;;;;;3.13;0.60;;;11.00;99.90;;;;;;5025952;28;20497;-80
2023/01/04 07:25:26;;;;;;;4.03;0.73;;;11.10;99.90;;;;;;5008358;28;20064;-80
2023/01/04 07:27:52;;;;;;;3.58;0.80;;;11.00;99.90;;;;;;4976485;28;20045;-80
2023/01/04 07:30:20;;;;;;;3.40;0.85;;;11.00;99.90;;;;;;5024820;28;20061;-80
2023/01/04 07:32:46;;;;;;;5.20;1.20;;;11.00;99.90;;;;;;5025728;28;20407;-80
2023/01/04 07:35:12;;;;;;;2.78;0.75;;;11.10;99.90;;;;;;5008902;28;20045;-80
2023/01/04 07:37:37;;;;;;;7.32;1.08;;;11.10;99.90;;;;;;5024627;28;20053;-80
2023/01/04 07:40:05;;;;;;;5.07;1.05;;;11.10;99.90;;;;;;5008902;28;20144;-80
2023/01/04 07:42:30;;;;;;;3.60;1.20;;;11.10;99.90;;;;;;5008254;28;20052;-80
2023/01/04 07:44:56;;;;;;;2.47;0.77;;;11.10;99.90;;;;;;5008555;28;20049;-80
2023/01/04 07:47:22;;;;;;;4.25;0.88;;;11.10;99.90;;;;;;5024911;28;20060;-80
2023/01/04 07:49:48;;;;;;;2.00;0.50;;;11.10;99.90;;;;;;4992827;28;20454;-80
2023/01/04 07:52:15;;;;;;;3.20;0.63;;;11.10;99.90;;;;;;5008602;28;20108;-80
2023/01/04 07:54:41;;;;;;;3.42;0.88;;;11.10;99.90;;;;;;5008686;28;20060;-81
2023/01/04 07:57:06;;;;;;;2.92;0.95;;;11.10;99.90;;;;;;4992423;28;20045;-80
2023/01/04 07:59:32;;;;;;;3.80;0.60;;;11.10;99.90;;;;;;5024644;28;20103;-81
2023/01/04 08:01:58;;;;;;;4.00;0.90;;;11.00;99.90;;;;;;5025612;28;20080;-81
2023/01/04 08:04:24;;;;;;;2.90;0.57;;;11.00;99.90;;;;;;4952676;28;1149704;-80
2023/01/04 08:06:50;;;;;;;4.78;0.77;;;11.00;99.90;;;;;;5025837;28;20049;-81
2023/01/04 08:09:16;;;;;;;2.90;0.85;;;11.00;99.90;;;;;;5026087;28;20453;-81
2023/01/04 08:11:43;;;;;;;2.42;0.65;;;11.00;99.90;;;;;;5009369;28;20052;-82
2023/01/04 08:14:09;;;;;;;1.88;0.68;;;11.10;99.90;;;;;;4993194;28;20493;-82
2023/01/04 08:16:37;;;;;;;2.40;0.60;;;11.00;99.90;;;;;;5008604;28;20500;-79
2023/01/04 08:19:06;;;;;;;1.90;0.60;;;11.10;99.90;;;;;;5026622;28;20518;-81
2023/01/04 08:21:33;;;;;;;1.40;0.50;;;11.00;99.90;;;;;;5025275;28;20044;-79
2023/01/04 08:23:59;;;;;;;4.90;0.63;;;11.00;99.90;;;;;;5026044;28;20055;-79
2023/01/04 08:26:25;;;;;;;1.58;0.45;;;11.10;99.90;;;;;;5009279;28;20400;-79
2023/01/04 08:28:51;;;;;;;2.97;0.77;;;11.10;99.90;;;;;;5008640;28;20045;-79
2023/01/04 08:31:21;;;;;;;1.75;0.60;;;11.10;99.90;;;;;;5025725;28;20132;-79
2023/01/04 08:33:47;;;;;;;4.35;0.70;;;11.10;99.90;;;;;;5024920;28;20045;-80
2023/01/04 08:36:20;;;;;;;3.70;0.47;;;11.10;99.90;;;;;;5009056;28;20080;-79
2023/01/04 08:38:48;;;;;;;3.95;0.60;;;11.00;99.90;;;;;;5024902;28;20084;-79
2023/01/04 08:41:15;;;;;;;1.27;0.45;;;11.10;99.90;;;;;;5026675;28;20045;-79
2023/01/04 08:43:41;;;;;;;2.42;0.77;;;11.10;99.90;;;;;;5025052;28;20627;-79
2023/01/04 08:46:07;;;;;;;2.88;0.75;;;11.10;99.90;;;;;;5024651;28;20041;-79
2023/01/04 08:48:34;;;;;;;1.65;0.47;;;11.10;99.90;;;;;;5027077;28;20064;-79
2023/01/04 08:51:20;;;;;;;1.25;0.30;;;11.10;99.90;;;;;;5024847;28;20129;-79
2023/01/04 08:53:45;;;;;;;2.38;0.85;;;11.10;99.90;;;;;;5026247;28;20049;-79
2023/01/04 08:56:11;;;;;;;1.00;0.32;;;11.10;99.90;;;;;;5025417;28;20516;-79
2023/01/04 08:58:37;;;;;;;2.25;0.50;;;11.10;99.90;;;;;;5025228;28;20401;-80
2023/01/04 09:01:08;;;;;;;1.42;0.82;;;11.10;99.90;;;;;;5025079;28;20042;-79
2023/01/04 09:03:36;;;;;;;2.67;0.40;;;11.10;99.90;;;;;;5025981;28;20108;-79
2023/01/04 09:06:07;;;;;;;1.23;0.55;;;11.20;99.90;;;;;;5028567;28;20045;-79
2023/01/04 09:08:34;;;;;;;0.85;0.22;;;11.10;99.90;;;;;;5028300;28;20049;-79
2023/01/04 09:11:11;;;;;;;2.55;0.55;;;11.10;99.90;;;;;;5027940;28;20075;-79
2023/01/04 09:13:38;;;;;;;1.58;0.68;;;11.10;99.90;;;;;;5027644;28;20048;-79
2023/01/04 09:16:09;;;;;;;2.78;0.50;;;11.10;99.90;;;;;;5027477;28;20488;-78
2023/01/04 09:18:35;;;;;;;6.03;0.73;;;11.10;99.90;;;;;;5011732;28;20033;-78
2023/01/04 09:21:09;;;;;;;7.95;0.75;;;11.10;99.90;;;;;;4995022;28;20132;-78
2023/01/04 09:23:35;;;;;;;8.57;1.00;;;11.10;99.90;;;;;;5011452;28;20123;-78
2023/01/04 09:26:12;;;;;;;6.65;0.90;;;11.10;99.90;;;;;;5027641;28;20045;-78
2023/01/04 09:28:38;;;;;;;6.68;0.95;;;11.10;99.90;;;;;;5011022;28;20095;-78
2023/01/04 09:31:10;;;;;;;7.40;1.00;;;11.10;99.90;;;;;;5011712;28;20076;-78
2023/01/04 09:33:36;;;;;;;8.07;0.80;;;11.10;99.90;;;;;;5010638;28;20095;-79
2023/01/04 09:36:03;;;;;;;7.20;1.15;;;11.10;99.90;;;;;;5011166;28;20095;-78
2023/01/04 09:38:29;;;;;;;4.75;1.08;;;11.10;99.90;;;;;;5011168;28;20277;-78
2023/01/04 09:41:13;;;;;;;9.65;1.23;;;11.10;99.90;;;;;;5045626;28;20157;-78
2023/01/04 09:43:48;;;;;;;8.02;1.58;;;11.10;99.90;;;;;;5027544;28;20048;-78
2023/01/04 09:46:41;;;;;;;13.30;2.30;;;11.10;99.90;;;;;;5010935;28;20100;-78
2023/01/04 09:49:23;;;;;;;8.63;2.03;;;11.20;99.90;;;;;;5027580;28;20122;-77
2023/01/04 09:51:57;;;;;;;4.82;1.65;;;11.20;99.90;;;;;;5027061;28;20045;-79
2023/01/04 09:54:29;;;;;;;8.55;1.83;;;11.20;99.90;;;;;;5027735;28;20045;-79
2023/01/04 09:56:57;;;;;;;5.60;1.70;;;11.20;99.90;;;;;;5027534;28;20045;-77
2023/01/04 09:59:30;;;;;;;15.52;2.30;;;11.30;99.90;;;;;;5010212;28;20053;-78
2023/01/04 10:02:10;;;;;;;9.23;1.83;;;11.30;99.90;;;;;;5045681;28;20053;-78
2023/01/04 10:04:45;;;;;;;12.52;1.85;;;11.30;99.90;;;;;;5026892;28;20416;-78
2023/01/04 10:07:32;;;;;;;12.55;2.78;;;11.30;99.90;;;;;;5026884;28;20059;-78
2023/01/04 10:09:59;;;;;;;12.70;2.45;;;11.30;99.90;;;;;;5010942;28;20051;-78
2023/01/04 10:12:43;;;;;;;11.98;1.90;;;11.30;99.90;;;;;;5026818;28;20080;-77
2023/01/04 10:15:21;;;;;;;16.35;2.15;;;11.40;99.90;;;;;;5026879;28;20052;-77
2023/01/04 10:18:07;;;;;;;11.82;2.35;;;11.40;99.90;;;;;;5026695;28;20053;-79
2023/01/04 10:20:58;;;;;;;18.75;2.70;;;11.40;99.90;;;;;;5010571;28;20052;-79
2023/01/04 10:23:34;;;;;;;14.38;2.58;;;11.50;99.90;;;;;;5026976;28;20128;-79
2023/01/04 10:26:13;;;;;;;13.57;2.17;;;11.50;99.90;;;;;;5026816;28;20441;-79
2023/01/04 10:28:47;;;;;;;13.93;2.40;;;11.60;99.90;;;;;;5027294;28;20154;-79
2023/01/04 10:31:33;;;;;;;18.50;2.53;;;11.60;99.90;;;;;;5027043;28;20060;-79
2023/01/04 10:34:02;;;;;;;15.57;2.88;;;11.60;99.90;;;;;;5026032;28;20159;-79
2023/01/04 10:36:32;;;;;;;17.77;2.90;;;11.70;99.90;;;;;;5026871;28;20080;-79
2023/01/04 10:39:03;;;;;;;15.93;2.53;;;11.70;99.90;;;;;;5010881;28;20095;-79
2023/01/04 10:41:39;;;;;;;18.45;2.40;;;11.80;99.90;;;;;;5026838;28;20424;-79
2023/01/04 10:44:19;;;;;;;21.65;3.17;;;11.80;99.90;;;;;;5010552;28;20045;-80
2023/01/04 10:47:07;;;;;;;19.98;2.50;;;11.80;99.90;;;;;;5026223;28;20129;-79
2023/01/04 10:49:40;;;;;;;22.75;3.22;;;11.90;99.90;;;;;;5010798;28;20514;-79
2023/01/04 10:52:30;;;;;;;24.10;4.97;;;11.90;99.90;;;;;;5026816;28;20061;-79
2023/01/04 10:55:01;;;;;;;20.75;3.67;;;12.00;99.90;;;;;;5026242;28;20051;-79
2023/01/04 10:57:41;;;;;;;18.55;2.53;;;12.00;99.90;;;;;;5026708;28;20041;-79
2023/01/04 11:00:16;;;;;;;26.67;3.60;;;12.10;99.90;;;;;;5026615;28;20048;-79
2023/01/04 11:03:04;;;;;;;23.33;4.88;;;12.10;99.90;;;;;;5026728;28;20048;-79
2023/01/04 11:05:38;;;;;;;25.17;4.03;;;12.20;99.90;;;;;;5026539;28;20048;-79
2023/01/04 11:08:22;;;;;;;26.13;3.45;;;12.20;99.90;;;;;;5026129;28;20041;-79
2023/01/04 11:10:59;;;;;;;33.72;4.95;;;12.20;99.90;;;;;;5026513;28;20472;-80
2023/01/04 11:13:25;;;;;;;25.35;3.58;;;12.20;99.90;;;;;;5009679;28;20052;-79
2023/01/04 11:15:51;;;;;;;28.15;3.17;;;12.30;99.90;;;;;;5026163;28;20060;-79
2023/01/04 11:18:17;;;;;;;33.53;4.97;;;12.20;99.90;;;;;;4993635;28;20472;-79
2023/01/04 11:20:43;;;;;;;26.67;4.32;;;12.20;99.90;;;;;;5028044;28;20488;-79
2023/01/04 11:23:11;;;;;;;24.48;5.07;;;12.30;99.90;;;;;;5030244;28;20412;-76
2023/01/04 11:25:51;;;;;;;16.63;2.90;;;12.30;99.90;;;;;;5029734;28;20044;-77
2023/01/04 11:28:43;;;;;;;25.00;3.10;;;12.30;99.90;;;;;;5013153;28;20096;-77
2023/01/04 11:31:11;;;;;;;17.15;3.42;;;12.40;99.90;;;;;;5029986;28;20059;-79
2023/01/04 11:33:58;;;;;;;23.63;2.97;;;12.40;99.90;;;;;;5029762;28;20098;-78
2023/01/04 11:36:30;;;;;;;24.35;3.42;;;12.40;99.90;;;;;;5029869;28;20579;-78
2023/01/04 11:38:56;;;;;;;18.38;2.58;;;12.40;99.90;;;;;;5029404;28;20098;-77
2023/01/04 11:41:23;;;;;;;17.52;2.65;;;12.40;99.90;;;;;;5029976;28;20049;-78
2023/01/04 11:44:03;;;;;;;16.40;2.85;;;12.40;99.90;;;;;;5029954;28;20064;-78
2023/01/04 11:46:30;;;;;;;21.00;4.13;;;12.40;99.90;;;;;;5029096;28;20056;-77
2023/01/04 11:48:56;;;;;;;18.73;2.72;;;12.40;99.90;;;;;;5030140;28;20041;-77
2023/01/04 11:51:28;;;;;;;27.30;3.67;;;12.40;99.90;;;;;;5013270;28;20048;-78
2023/01/04 11:54:18;;;;;;;19.70;3.60;;;12.40;99.90;;;;;;5029459;28;20052;-78
2023/01/04 11:57:05;;;;;;;32.35;4.57;;;12.40;99.90;;;;;;5029445;28;20095;-78
2023/01/04 11:59:30;;;;;;;27.65;3.70;;;12.40;99.90;;;;;;5012679;28;20925;-78
2023/01/04 12:02:22;;;;;;;26.33;4.07;;;12.30;99.90;;;;;;5029469;28;20088;-78
2023/01/04 12:04:50;;;;;;;31.67;4.30;;;12.30;99.90;;;;;;5012703;28;20045;-80
2023/01/04 12:07:33;;;;;;;19.10;2.55;;;12.30;99.90;;;;;;5028953;28;20060;-78
2023/01/04 12:10:19;;;;;;;18.70;3.28;;;12.30;99.90;;;;;;5013123;28;20033;-77
2023/01/04 12:12:45;;;;;;;20.95;2.95;;;12.30;99.90;;;;;;5012317;28;20038;-78
2023/01/04 12:15:21;;;;;;;20.73;3.83;;;12.40;99.90;;;;;;5028928;28;20099;-78
2023/01/04 12:17:49;;;;;;;10.90;2.47;;;12.40;99.90;;;;;;5028913;28;20141;-77
2023/01/04 12:20:18;;;;;;;14.55;2.75;;;12.40;99.90;;;;;;5029107;28;20041;-79
2023/01/04 12:22:44;;;;;;;28.63;4.88;;;12.40;99.90;;;;;;5029379;28;20413;-78
2023/01/04 12:25:37;;;;;;;26.80;3.15;;;12.40;99.90;;;;;;5029252;28;20045;-78
2023/01/04 12:28:03;;;;;;;21.60;2.92;;;12.50;99.90;;;;;;5029208;28;20053;-79
2023/01/04 12:30:45;;;;;;;22.85;2.90;;;12.50;99.90;;;;;;5028323;28;20167;-78
2023/01/04 12:33:29;;;;;;;19.02;3.50;;;12.50;99.90;;;;;;5027895;28;20057;-79
2023/01/04 12:36:05;;;;;;;12.50;2.25;;;12.50;99.90;;;;;;5028681;28;20330;-80
2023/01/04 12:39:08;;;;;;;24.08;3.17;;;12.50;99.90;;;;;;5028507;28;20143;-79
2023/01/04 12:41:34;;;;;;;14.52;2.47;;;12.50;99.90;;;;;;5028657;28;20431;-79
2023/01/04 12:44:02;;;;;;;17.77;2.70;;;12.50;99.90;;;;;;5028676;28;20091;-79
2023/01/04 12:49:26;;;;;;;14.55;1.90;;;12.50;99.90;;;;;;5028940;28;20053;-79
2023/01/04 12:52:07;;;;;;;12.57;2.13;;;12.50;99.90;;;;;;5028046;28;20049;-79
2023/01/04 12:54:53;;;;;;;13.38;2.42;;;12.50;99.90;;;;;;5011328;28;20048;-79
2023/01/04 12:57:23;;;;;;;12.48;1.95;;;12.50;99.90;;;;;;5028309;28;20049;-79
2023/01/04 12:59:58;;;;;;;14.65;1.98;;;12.50;99.90;;;;;;5028277;28;20132;-79
2023/01/04 13:02:46;;;;;;;11.88;2.28;;;12.40;99.90;;;;;;5028092;28;20082;-79
2023/01/04 13:05:18;;;;;;;11.60;2.20;;;12.40;99.90;;;;;;5028113;28;20091;-79
2023/01/04 13:07:56;;;;;;;9.13;1.80;;;12.40;99.90;;;;;;5027895;28;20102;-80
2023/01/04 13:10:37;;;;;;;11.73;1.63;;;12.40;99.90;;;;;;5028508;28;20049;-80
2023/01/04 13:13:21;;;;;;;7.82;1.90;;;12.40;99.90;;;;;;5011290;28;20052;-78
2023/01/04 13:16:21;;;;;;;12.35;1.98;;;12.30;99.90;;;;;;5011471;28;20789;-79
2023/01/04 13:18:53;;;;;;;16.88;1.90;;;12.30;99.90;;;;;;5028198;28;20111;-79
2023/01/04 13:21:33;;;;;;;6.35;1.58;;;12.30;99.90;;;;;;5011215;28;20037;-80
2023/01/04 13:24:03;;;;;;;13.77;2.03;;;12.30;99.90;;;;;;5027895;28;20253;-79
2023/01/04 13:26:37;;;;;;;14.90;2.40;;;12.30;99.90;;;;;;5027446;28;20056;-79
2023/01/04 13:29:13;;;;;;;16.65;2.67;;;12.30;99.90;;;;;;5027687;28;20096;-79
2023/01/04 13:31:41;;;;;;;20.10;2.97;;;12.30;99.90;;;;;;5045621;28;20072;-79
2023/01/04 13:34:29;;;;;;;18.95;4.10;;;12.20;99.90;;;;;;5027465;28;20036;-79
2023/01/04 13:37:10;;;;;;;16.08;3.05;;;12.20;99.90;;;;;;5027467;28;20052;-78
2023/01/04 13:40:22;;;;;;;20.55;3.33;;;12.20;99.90;;;;;;5011113;28;20080;-79
2023/01/04 13:43:06;;;;;;;18.52;2.30;;;12.20;99.90;;;;;;5019111;28;20065;-79
2023/01/04 13:46:00;;;;;;;20.48;3.00;;;12.20;99.90;;;;;;5027613;28;20128;-79
2023/01/04 13:48:35;;;;;;;;;;;12.20;99.90;;;;;;5028462;28;20450;-79
2023/01/04 13:51:16;;;;;;;17.90;2.17;;;12.20;99.90;;;;;;5011037;28;20035;-79
2023/01/04 13:53:50;;;;;;;21.13;3.15;;;12.20;99.90;;;;;;5027144;28;20139;-80